sensor_id;sensor_type;location;lat;lon;timestamp;P1;durP1;ratioP1;P2;durP2;ratioP2
9124;SDS011;4597;48.730;9.114;2023-06-14T00:01:01;3.70;;;3.40;;
9124;SDS011;4597;48.730;9.114;2023-06-14T00:03:28;6.00;;;3.70;;
9124;SDS011;4597;48.730;9.114;2023-06-14T00:05:54;4.47;;;3.60;;
9124;SDS011;4597;48.730;9.114;2023-06-14T00:08:20;4.37;;;3.47;;
9124;SDS011;4597;48.730;9.114;2023-06-14T00:10:47;4.13;;;3.73;;
9124;SDS011;4597;48.730;9.114;2023-06-14T00:13:13;4.07;;;3.77;;
9124;SDS011;4597;48.730;9.114;2023-06-14T00:15:39;3.90;;;3.60;;
9124;SDS011;4597;48.730;9.114;2023-06-14T00:18:05;3.93;;;3.57;;
9124;SDS011;4597;48.730;9.114;2023-06-14T00:20:31;4.33;;;3.83;;
9124;SDS011;4597;48.730;9.114;2023-06-14T00:23:01;4.43;;;4.13;;
9124;SDS011;4597;48.730;9.114;2023-06-14T00:25:27;3.70;;;3.40;;
9124;SDS011;4597;48.730;9.114;2023-06-14T00:27:53;4.00;;;3.70;;
9124;SDS011;4597;48.730;9.114;2023-06-14T00:30:19;4.67;;;3.97;;
9124;SDS011;4597;48.730;9.114;2023-06-14T00:32:45;4.33;;;4.03;;
9124;SDS011;4597;48.730;9.114;2023-06-14T00:35:11;4.33;;;3.93;;
9124;SDS011;4597;48.730;9.114;2023-06-14T00:37:37;4.03;;;3.60;;
9124;SDS011;4597;48.730;9.114;2023-06-14T00:40:03;3.83;;;3.63;;
9124;SDS011;4597;48.730;9.114;2023-06-14T00:42:30;4.50;;;4.10;;
9124;SDS011;4597;48.730;9.114;2023-06-14T00:44:55;4.00;;;3.70;;
9124;SDS011;4597;48.730;9.114;2023-06-14T00:47:21;4.63;;;4.20;;
9124;SDS011;4597;48.730;9.114;2023-06-14T00:49:47;4.40;;;4.10;;
9124;SDS011;4597;48.730;9.114;2023-06-14T00:52:15;4.20;;;3.80;;
9124;SDS011;4597;48.730;9.114;2023-06-14T00:54:41;3.80;;;3.50;;
9124;SDS011;4597;48.730;9.114;2023-06-14T00:57:07;4.70;;;3.90;;
9124;SDS011;4597;48.730;9.114;2023-06-14T00:59:35;4.67;;;4.23;;
9124;SDS011;4597;48.730;9.114;2023-06-14T01:02:06;4.17;;;3.87;;
9124;SDS011;4597;48.730;9.114;2023-06-14T01:04:32;3.80;;;3.53;;
9124;SDS011;4597;48.730;9.114;2023-06-14T01:07:12;4.10;;;3.80;;
9124;SDS011;4597;48.730;9.114;2023-06-14T01:09:55;4.10;;;3.70;;
9124;SDS011;4597;48.730;9.114;2023-06-14T01:12:37;4.70;;;4.17;;
9124;SDS011;4597;48.730;9.114;2023-06-14T01:15:04;4.30;;;3.93;;
9124;SDS011;4597;48.730;9.114;2023-06-14T01:17:32;4.00;;;3.70;;
9124;SDS011;4597;48.730;9.114;2023-06-14T01:20:00;4.67;;;4.20;;
9124;SDS011;4597;48.730;9.114;2023-06-14T01:22:28;3.97;;;3.67;;
9124;SDS011;4597;48.730;9.114;2023-06-14T01:24:54;4.17;;;3.77;;
9124;SDS011;4597;48.730;9.114;2023-06-14T01:27:23;3.63;;;3.43;;
9124;SDS011;4597;48.730;9.114;2023-06-14T01:29:53;4.00;;;3.70;;
9124;SDS011;4597;48.730;9.114;2023-06-14T01:32:21;4.40;;;4.10;;
9124;SDS011;4597;48.730;9.114;2023-06-14T01:34:51;5.33;;;3.93;;
9124;SDS011;4597;48.730;9.114;2023-06-14T01:37:17;4.73;;;4.33;;
9124;SDS011;4597;48.730;9.114;2023-06-14T01:39:44;4.07;;;3.67;;
9124;SDS011;4597;48.730;9.114;2023-06-14T01:42:10;4.40;;;4.10;;
9124;SDS011;4597;48.730;9.114;2023-06-14T01:44:37;4.30;;;4.00;;
9124;SDS011;4597;48.730;9.114;2023-06-14T01:47:03;4.03;;;3.73;;
9124;SDS011;4597;48.730;9.114;2023-06-14T01:49:29;4.00;;;3.70;;
9124;SDS011;4597;48.730;9.114;2023-06-14T01:51:58;4.07;;;3.77;;
9124;SDS011;4597;48.730;9.114;2023-06-14T01:54:23;4.10;;;3.80;;
9124;SDS011;4597;48.730;9.114;2023-06-14T01:56:50;4.43;;;4.13;;
9124;SDS011;4597;48.730;9.114;2023-06-14T01:59:16;4.27;;;3.90;;
9124;SDS011;4597;48.730;9.114;2023-06-14T02:01:41;4.47;;;3.67;;
9124;SDS011;4597;48.730;9.114;2023-06-14T02:04:07;4.10;;;3.60;;
9124;SDS011;4597;48.730;9.114;2023-06-14T02:06:32;4.20;;;3.90;;
9124;SDS011;4597;48.730;9.114;2023-06-14T02:09:00;4.07;;;3.77;;
9124;SDS011;4597;48.730;9.114;2023-06-14T02:11:26;4.17;;;3.87;;
9124;SDS011;4597;48.730;9.114;2023-06-14T02:13:52;3.97;;;3.70;;
9124;SDS011;4597;48.730;9.114;2023-06-14T02:16:17;4.43;;;4.13;;
9124;SDS011;4597;48.730;9.114;2023-06-14T02:18:43;4.40;;;4.00;;
9124;SDS011;4597;48.730;9.114;2023-06-14T02:21:08;3.93;;;3.70;;
9124;SDS011;4597;48.730;9.114;2023-06-14T02:23:34;4.83;;;4.33;;
9124;SDS011;4597;48.730;9.114;2023-06-14T02:26:00;5.90;;;4.43;;
9124;SDS011;4597;48.730;9.114;2023-06-14T02:28:25;4.67;;;3.50;;
9124;SDS011;4597;48.730;9.114;2023-06-14T02:30:51;5.33;;;3.83;;
9124;SDS011;4597;48.730;9.114;2023-06-14T02:33:16;4.53;;;4.00;;
9124;SDS011;4597;48.730;9.114;2023-06-14T02:35:42;5.33;;;3.90;;
9124;SDS011;4597;48.730;9.114;2023-06-14T02:38:08;4.13;;;3.83;;
9124;SDS011;4597;48.730;9.114;2023-06-14T02:40:33;4.17;;;3.87;;
9124;SDS011;4597;48.730;9.114;2023-06-14T02:42:59;4.37;;;3.97;;
9124;SDS011;4597;48.730;9.114;2023-06-14T02:45:25;4.37;;;3.77;;
9124;SDS011;4597;48.730;9.114;2023-06-14T02:47:50;4.53;;;4.13;;
9124;SDS011;4597;48.730;9.114;2023-06-14T02:50:16;4.23;;;3.93;;
9124;SDS011;4597;48.730;9.114;2023-06-14T02:52:42;4.80;;;4.30;;
9124;SDS011;4597;48.730;9.114;2023-06-14T02:55:09;5.00;;;4.50;;
9124;SDS011;4597;48.730;9.114;2023-06-14T02:57:35;4.50;;;4.10;;
9124;SDS011;4597;48.730;9.114;2023-06-14T03:00:00;4.30;;;4.00;;
9124;SDS011;4597;48.730;9.114;2023-06-14T03:02:26;3.97;;;3.67;;
9124;SDS011;4597;48.730;9.114;2023-06-14T03:04:51;4.50;;;4.20;;
9124;SDS011;4597;48.730;9.114;2023-06-14T03:07:17;4.30;;;4.00;;
9124;SDS011;4597;48.730;9.114;2023-06-14T03:09:45;4.77;;;4.40;;
9124;SDS011;4597;48.730;9.114;2023-06-14T03:12:10;3.90;;;3.60;;
9124;SDS011;4597;48.730;9.114;2023-06-14T03:14:36;4.13;;;3.83;;
9124;SDS011;4597;48.730;9.114;2023-06-14T03:17:03;5.10;;;4.10;;
9124;SDS011;4597;48.730;9.114;2023-06-14T03:19:29;4.47;;;4.17;;
9124;SDS011;4597;48.730;9.114;2023-06-14T03:21:55;4.50;;;4.20;;
9124;SDS011;4597;48.730;9.114;2023-06-14T03:24:24;4.57;;;4.17;;
9124;SDS011;4597;48.730;9.114;2023-06-14T03:26:52;4.63;;;4.27;;
9124;SDS011;4597;48.730;9.114;2023-06-14T03:29:18;4.33;;;3.90;;
9124;SDS011;4597;48.730;9.114;2023-06-14T03:31:59;4.40;;;4.03;;
9124;SDS011;4597;48.730;9.114;2023-06-14T03:34:26;4.70;;;4.30;;
9124;SDS011;4597;48.730;9.114;2023-06-14T03:36:52;5.00;;;4.60;;
9124;SDS011;4597;48.730;9.114;2023-06-14T03:39:17;5.70;;;4.27;;
9124;SDS011;4597;48.730;9.114;2023-06-14T03:41:44;5.03;;;4.63;;
9124;SDS011;4597;48.730;9.114;2023-06-14T03:44:09;5.10;;;4.50;;
9124;SDS011;4597;48.730;9.114;2023-06-14T03:46:34;4.80;;;4.40;;
9124;SDS011;4597;48.730;9.114;2023-06-14T03:49:00;4.70;;;4.20;;
9124;SDS011;4597;48.730;9.114;2023-06-14T03:51:27;4.70;;;4.30;;
9124;SDS011;4597;48.730;9.114;2023-06-14T03:53:53;5.83;;;4.37;;
9124;SDS011;4597;48.730;9.114;2023-06-14T03:56:20;4.63;;;3.87;;
9124;SDS011;4597;48.730;9.114;2023-06-14T03:58:46;5.27;;;4.77;;
9124;SDS011;4597;48.730;9.114;2023-06-14T04:01:11;4.77;;;4.20;;
9124;SDS011;4597;48.730;9.114;2023-06-14T04:03:37;4.50;;;4.20;;
9124;SDS011;4597;48.730;9.114;2023-06-14T04:06:05;5.30;;;4.80;;
9124;SDS011;4597;48.730;9.114;2023-06-14T04:08:31;5.13;;;4.73;;
9124;SDS011;4597;48.730;9.114;2023-06-14T04:10:56;5.33;;;4.30;;
9124;SDS011;4597;48.730;9.114;2023-06-14T04:13:22;5.23;;;4.23;;
9124;SDS011;4597;48.730;9.114;2023-06-14T04:15:47;4.53;;;4.20;;
9124;SDS011;4597;48.730;9.114;2023-06-14T04:18:13;4.90;;;4.40;;
9124;SDS011;4597;48.730;9.114;2023-06-14T04:20:39;4.43;;;4.13;;
9124;SDS011;4597;48.730;9.114;2023-06-14T04:23:15;4.90;;;4.43;;
9124;SDS011;4597;48.730;9.114;2023-06-14T04:25:43;4.27;;;3.97;;
9124;SDS011;4597;48.730;9.114;2023-06-14T04:28:14;4.33;;;4.00;;
9124;SDS011;4597;48.730;9.114;2023-06-14T04:30:44;6.03;;;5.17;;
9124;SDS011;4597;48.730;9.114;2023-06-14T04:33:10;4.77;;;4.37;;
9124;SDS011;4597;48.730;9.114;2023-06-14T04:35:36;6.07;;;4.60;;
9124;SDS011;4597;48.730;9.114;2023-06-14T04:38:02;4.50;;;4.10;;
9124;SDS011;4597;48.730;9.114;2023-06-14T04:40:29;4.70;;;4.30;;
9124;SDS011;4597;48.730;9.114;2023-06-14T04:42:56;4.90;;;4.50;;
9124;SDS011;4597;48.730;9.114;2023-06-14T04:45:22;4.60;;;4.20;;
9124;SDS011;4597;48.730;9.114;2023-06-14T04:47:48;5.30;;;4.80;;
9124;SDS011;4597;48.730;9.114;2023-06-14T04:50:15;5.40;;;4.90;;
9124;SDS011;4597;48.730;9.114;2023-06-14T04:52:41;5.03;;;4.50;;
9124;SDS011;4597;48.730;9.114;2023-06-14T04:55:07;4.70;;;4.20;;
9124;SDS011;4597;48.730;9.114;2023-06-14T04:57:33;6.40;;;4.47;;
9124;SDS011;4597;48.730;9.114;2023-06-14T05:00:00;4.73;;;4.20;;
9124;SDS011;4597;48.730;9.114;2023-06-14T05:02:29;4.47;;;4.17;;
9124;SDS011;4597;48.730;9.114;2023-06-14T05:04:55;4.80;;;4.23;;
9124;SDS011;4597;48.730;9.114;2023-06-14T05:07:22;4.90;;;4.40;;
9124;SDS011;4597;48.730;9.114;2023-06-14T05:09:48;5.03;;;4.50;;
9124;SDS011;4597;48.730;9.114;2023-06-14T05:12:14;5.50;;;5.00;;
9124;SDS011;4597;48.730;9.114;2023-06-14T05:14:43;5.20;;;4.70;;
9124;SDS011;4597;48.730;9.114;2023-06-14T05:17:08;5.00;;;4.60;;
9124;SDS011;4597;48.730;9.114;2023-06-14T05:19:34;4.50;;;4.20;;
9124;SDS011;4597;48.730;9.114;2023-06-14T05:22:00;5.27;;;4.77;;
9124;SDS011;4597;48.730;9.114;2023-06-14T05:24:25;4.77;;;4.37;;
9124;SDS011;4597;48.730;9.114;2023-06-14T05:26:51;4.93;;;4.50;;
9124;SDS011;4597;48.730;9.114;2023-06-14T05:29:16;5.93;;;5.37;;
9124;SDS011;4597;48.730;9.114;2023-06-14T05:31:42;6.20;;;4.77;;
9124;SDS011;4597;48.730;9.114;2023-06-14T05:34:08;6.17;;;5.67;;
9124;SDS011;4597;48.730;9.114;2023-06-14T05:36:34;6.53;;;5.70;;
9124;SDS011;4597;48.730;9.114;2023-06-14T05:39:01;5.80;;;5.30;;
9124;SDS011;4597;48.730;9.114;2023-06-14T05:41:28;5.50;;;5.00;;
9124;SDS011;4597;48.730;9.114;2023-06-14T05:43:54;4.90;;;4.50;;
9124;SDS011;4597;48.730;9.114;2023-06-14T05:46:20;5.53;;;4.67;;
9124;SDS011;4597;48.730;9.114;2023-06-14T05:48:53;5.27;;;4.77;;
9124;SDS011;4597;48.730;9.114;2023-06-14T05:51:19;6.37;;;5.73;;
9124;SDS011;4597;48.730;9.114;2023-06-14T05:53:45;5.70;;;5.20;;
9124;SDS011;4597;48.730;9.114;2023-06-14T05:56:15;5.37;;;4.97;;
9124;SDS011;4597;48.730;9.114;2023-06-14T05:58:42;5.30;;;4.80;;
9124;SDS011;4597;48.730;9.114;2023-06-14T06:01:08;5.23;;;4.83;;
9124;SDS011;4597;48.730;9.114;2023-06-14T06:03:33;7.27;;;4.83;;
9124;SDS011;4597;48.730;9.114;2023-06-14T06:05:59;5.70;;;5.20;;
9124;SDS011;4597;48.730;9.114;2023-06-14T06:08:25;5.57;;;5.13;;
9124;SDS011;4597;48.730;9.114;2023-06-14T06:10:54;5.60;;;5.10;;
9124;SDS011;4597;48.730;9.114;2023-06-14T06:13:20;6.27;;;4.93;;
9124;SDS011;4597;48.730;9.114;2023-06-14T06:15:46;5.57;;;5.07;;
9124;SDS011;4597;48.730;9.114;2023-06-14T06:18:11;6.17;;;5.67;;
9124;SDS011;4597;48.730;9.114;2023-06-14T06:20:37;6.50;;;5.47;;
9124;SDS011;4597;48.730;9.114;2023-06-14T06:23:02;6.33;;;5.60;;
9124;SDS011;4597;48.730;9.114;2023-06-14T06:25:28;5.93;;;5.43;;
9124;SDS011;4597;48.730;9.114;2023-06-14T06:27:56;7.17;;;5.27;;
9124;SDS011;4597;48.730;9.114;2023-06-14T06:30:22;5.47;;;5.07;;
9124;SDS011;4597;48.730;9.114;2023-06-14T06:32:48;6.17;;;5.03;;
9124;SDS011;4597;48.730;9.114;2023-06-14T06:35:14;5.47;;;5.07;;
9124;SDS011;4597;48.730;9.114;2023-06-14T06:37:41;5.57;;;5.10;;
9124;SDS011;4597;48.730;9.114;2023-06-14T06:40:07;5.37;;;4.87;;
9124;SDS011;4597;48.730;9.114;2023-06-14T06:42:33;5.40;;;4.90;;
9124;SDS011;4597;48.730;9.114;2023-06-14T06:44:59;5.70;;;4.80;;
9124;SDS011;4597;48.730;9.114;2023-06-14T06:47:25;5.37;;;4.80;;
9124;SDS011;4597;48.730;9.114;2023-06-14T06:49:51;5.40;;;4.70;;
9124;SDS011;4597;48.730;9.114;2023-06-14T06:52:16;5.40;;;4.90;;
9124;SDS011;4597;48.730;9.114;2023-06-14T06:54:42;7.60;;;5.10;;
9124;SDS011;4597;48.730;9.114;2023-06-14T06:57:07;5.23;;;4.83;;
9124;SDS011;4597;48.730;9.114;2023-06-14T06:59:34;4.93;;;4.57;;
9124;SDS011;4597;48.730;9.114;2023-06-14T07:02:00;5.67;;;5.10;;
9124;SDS011;4597;48.730;9.114;2023-06-14T07:04:25;4.97;;;4.40;;
9124;SDS011;4597;48.730;9.114;2023-06-14T07:06:51;5.30;;;4.90;;
9124;SDS011;4597;48.730;9.114;2023-06-14T07:09:17;5.87;;;5.37;;
9124;SDS011;4597;48.730;9.114;2023-06-14T07:11:44;5.13;;;4.70;;
9124;SDS011;4597;48.730;9.114;2023-06-14T07:14:10;5.43;;;5.03;;
9124;SDS011;4597;48.730;9.114;2023-06-14T07:16:36;6.87;;;4.80;;
9124;SDS011;4597;48.730;9.114;2023-06-14T07:19:02;5.43;;;5.03;;
9124;SDS011;4597;48.730;9.114;2023-06-14T07:21:28;5.27;;;4.77;;
9124;SDS011;4597;48.730;9.114;2023-06-14T07:23:54;8.47;;;5.00;;
9124;SDS011;4597;48.730;9.114;2023-06-14T07:26:20;4.60;;;4.20;;
9124;SDS011;4597;48.730;9.114;2023-06-14T07:28:46;5.37;;;4.87;;
9124;SDS011;4597;48.730;9.114;2023-06-14T07:31:15;5.80;;;4.70;;
9124;SDS011;4597;48.730;9.114;2023-06-14T07:33:41;5.30;;;4.90;;
9124;SDS011;4597;48.730;9.114;2023-06-14T07:36:07;4.93;;;4.53;;
9124;SDS011;4597;48.730;9.114;2023-06-14T07:38:33;6.07;;;4.97;;
9124;SDS011;4597;48.730;9.114;2023-06-14T07:40:59;5.07;;;4.67;;
9124;SDS011;4597;48.730;9.114;2023-06-14T07:43:25;6.33;;;4.87;;
9124;SDS011;4597;48.730;9.114;2023-06-14T07:45:50;6.30;;;5.27;;
9124;SDS011;4597;48.730;9.114;2023-06-14T07:48:16;4.90;;;4.50;;
9124;SDS011;4597;48.730;9.114;2023-06-14T07:50:42;5.83;;;4.97;;
9124;SDS011;4597;48.730;9.114;2023-06-14T07:53:08;5.97;;;4.90;;
9124;SDS011;4597;48.730;9.114;2023-06-14T07:55:33;5.30;;;4.90;;
9124;SDS011;4597;48.730;9.114;2023-06-14T07:58:01;5.33;;;4.83;;
9124;SDS011;4597;48.730;9.114;2023-06-14T08:00:27;5.50;;;5.00;;
9124;SDS011;4597;48.730;9.114;2023-06-14T08:02:53;5.57;;;4.57;;
9124;SDS011;4597;48.730;9.114;2023-06-14T08:05:23;5.77;;;4.73;;
9124;SDS011;4597;48.730;9.114;2023-06-14T08:07:49;5.53;;;4.83;;
9124;SDS011;4597;48.730;9.114;2023-06-14T08:10:14;4.80;;;4.50;;
9124;SDS011;4597;48.730;9.114;2023-06-14T08:12:40;7.00;;;4.80;;
9124;SDS011;4597;48.730;9.114;2023-06-14T08:15:05;5.97;;;4.63;;
9124;SDS011;4597;48.730;9.114;2023-06-14T08:17:32;5.13;;;4.63;;
9124;SDS011;4597;48.730;9.114;2023-06-14T08:19:57;5.07;;;4.63;;
9124;SDS011;4597;48.730;9.114;2023-06-14T08:22:23;4.90;;;4.30;;
9124;SDS011;4597;48.730;9.114;2023-06-14T08:24:53;5.27;;;4.73;;
9124;SDS011;4597;48.730;9.114;2023-06-14T08:27:19;5.50;;;5.00;;
9124;SDS011;4597;48.730;9.114;2023-06-14T08:29:45;4.70;;;4.33;;
9124;SDS011;4597;48.730;9.114;2023-06-14T08:32:10;5.67;;;5.17;;
9124;SDS011;4597;48.730;9.114;2023-06-14T08:34:36;6.43;;;4.33;;
9124;SDS011;4597;48.730;9.114;2023-06-14T08:37:01;5.23;;;4.67;;
9124;SDS011;4597;48.730;9.114;2023-06-14T08:39:27;6.60;;;4.93;;
9124;SDS011;4597;48.730;9.114;2023-06-14T08:41:53;5.17;;;4.67;;
9124;SDS011;4597;48.730;9.114;2023-06-14T08:44:21;4.67;;;4.33;;
9124;SDS011;4597;48.730;9.114;2023-06-14T08:46:47;4.50;;;4.20;;
9124;SDS011;4597;48.730;9.114;2023-06-14T08:49:13;5.17;;;4.70;;
9124;SDS011;4597;48.730;9.114;2023-06-14T08:51:41;5.03;;;4.63;;
9124;SDS011;4597;48.730;9.114;2023-06-14T08:54:08;6.37;;;4.60;;
9124;SDS011;4597;48.730;9.114;2023-06-14T08:56:36;6.37;;;4.50;;
9124;SDS011;4597;48.730;9.114;2023-06-14T08:59:03;4.87;;;4.37;;
9124;SDS011;4597;48.730;9.114;2023-06-14T09:01:32;5.00;;;4.60;;
9124;SDS011;4597;48.730;9.114;2023-06-14T09:03:59;5.23;;;4.40;;
9124;SDS011;4597;48.730;9.114;2023-06-14T09:06:25;5.50;;;4.60;;
9124;SDS011;4597;48.730;9.114;2023-06-14T09:08:53;7.67;;;4.60;;
9124;SDS011;4597;48.730;9.114;2023-06-14T09:11:21;4.83;;;4.33;;
9124;SDS011;4597;48.730;9.114;2023-06-14T09:13:46;6.50;;;4.67;;
9124;SDS011;4597;48.730;9.114;2023-06-14T09:16:13;5.37;;;4.30;;
9124;SDS011;4597;48.730;9.114;2023-06-14T09:18:39;4.90;;;4.40;;
9124;SDS011;4597;48.730;9.114;2023-06-14T09:21:08;4.50;;;4.20;;
9124;SDS011;4597;48.730;9.114;2023-06-14T09:23:36;4.93;;;4.50;;
9124;SDS011;4597;48.730;9.114;2023-06-14T09:26:21;5.63;;;4.80;;
9124;SDS011;4597;48.730;9.114;2023-06-14T09:28:48;5.23;;;4.63;;
9124;SDS011;4597;48.730;9.114;2023-06-14T09:31:19;6.67;;;4.60;;
9124;SDS011;4597;48.730;9.114;2023-06-14T09:33:46;5.17;;;4.50;;
9124;SDS011;4597;48.730;9.114;2023-06-14T09:38:51;5.83;;;4.93;;
9124;SDS011;4597;48.730;9.114;2023-06-14T09:41:18;5.70;;;4.20;;
9124;SDS011;4597;48.730;9.114;2023-06-14T09:43:43;4.43;;;4.13;;
9124;SDS011;4597;48.730;9.114;2023-06-14T09:46:12;6.27;;;4.70;;
9124;SDS011;4597;48.730;9.114;2023-06-14T09:48:38;4.73;;;4.33;;
9124;SDS011;4597;48.730;9.114;2023-06-14T09:51:07;5.13;;;4.73;;
9124;SDS011;4597;48.730;9.114;2023-06-14T09:53:35;7.83;;;4.77;;
9124;SDS011;4597;48.730;9.114;2023-06-14T09:56:01;5.50;;;4.50;;
9124;SDS011;4597;48.730;9.114;2023-06-14T09:58:29;5.80;;;4.27;;
9124;SDS011;4597;48.730;9.114;2023-06-14T10:00:57;4.93;;;4.50;;
9124;SDS011;4597;48.730;9.114;2023-06-14T10:03:25;4.50;;;4.07;;
9124;SDS011;4597;48.730;9.114;2023-06-14T10:05:54;4.30;;;4.00;;
9124;SDS011;4597;48.730;9.114;2023-06-14T10:08:25;4.27;;;3.87;;
9124;SDS011;4597;48.730;9.114;2023-06-14T10:10:57;4.40;;;4.00;;
9124;SDS011;4597;48.730;9.114;2023-06-14T10:13:23;4.33;;;3.97;;
9124;SDS011;4597;48.730;9.114;2023-06-14T10:15:52;6.10;;;4.10;;
9124;SDS011;4597;48.730;9.114;2023-06-14T10:21:18;5.73;;;4.47;;
9124;SDS011;4597;48.730;9.114;2023-06-14T10:23:46;6.00;;;4.13;;
9124;SDS011;4597;48.730;9.114;2023-06-14T10:26:20;5.87;;;4.10;;
9124;SDS011;4597;48.730;9.114;2023-06-14T10:28:57;4.30;;;3.90;;
9124;SDS011;4597;48.730;9.114;2023-06-14T10:31:23;4.57;;;4.13;;
9124;SDS011;4597;48.730;9.114;2023-06-14T10:34:12;8.70;;;4.60;;
9124;SDS011;4597;48.730;9.114;2023-06-14T10:36:50;4.67;;;4.07;;
9124;SDS011;4597;48.730;9.114;2023-06-14T10:39:28;4.43;;;4.03;;
9124;SDS011;4597;48.730;9.114;2023-06-14T10:41:55;5.10;;;3.73;;
9124;SDS011;4597;48.730;9.114;2023-06-14T10:46:47;4.77;;;4.17;;
9124;SDS011;4597;48.730;9.114;2023-06-14T10:49:16;4.70;;;4.27;;
9124;SDS011;4597;48.730;9.114;2023-06-14T10:51:44;5.17;;;4.10;;
9124;SDS011;4597;48.730;9.114;2023-06-14T10:54:17;4.47;;;4.07;;
9124;SDS011;4597;48.730;9.114;2023-06-14T10:56:49;4.35;;;4.05;;
9124;SDS011;4597;48.730;9.114;2023-06-14T10:59:16;4.22;;;3.85;;
9124;SDS011;4597;48.730;9.114;2023-06-14T11:01:51;3.85;;;3.55;;
9124;SDS011;4597;48.730;9.114;2023-06-14T11:04:52;4.60;;;4.20;;
9124;SDS011;4597;48.730;9.114;2023-06-14T11:10:03;4.10;;;3.80;;
9124;SDS011;4597;48.730;9.114;2023-06-14T11:12:49;4.55;;;4.07;;
9124;SDS011;4597;48.730;9.114;2023-06-14T11:15:19;3.83;;;3.53;;
9124;SDS011;4597;48.730;9.114;2023-06-14T11:17:51;4.50;;;4.07;;
9124;SDS011;4597;48.730;9.114;2023-06-14T11:20:18;4.60;;;3.92;;
9124;SDS011;4597;48.730;9.114;2023-06-14T11:22:44;4.07;;;3.72;;
9124;SDS011;4597;48.730;9.114;2023-06-14T11:25:13;4.95;;;4.50;;
9124;SDS011;4597;48.730;9.114;2023-06-14T11:27:41;4.30;;;3.92;;
9124;SDS011;4597;48.730;9.114;2023-06-14T11:30:07;4.13;;;3.80;;
9124;SDS011;4597;48.730;9.114;2023-06-14T11:32:34;4.20;;;3.85;;
9124;SDS011;4597;48.730;9.114;2023-06-14T11:35:03;4.15;;;3.83;;
9124;SDS011;4597;48.730;9.114;2023-06-14T11:37:30;3.80;;;3.55;;
9124;SDS011;4597;48.730;9.114;2023-06-14T11:39:57;4.30;;;3.85;;
9124;SDS011;4597;48.730;9.114;2023-06-14T11:42:24;4.10;;;3.90;;
9124;SDS011;4597;48.730;9.114;2023-06-14T11:44:53;4.38;;;3.97;;
9124;SDS011;4597;48.730;9.114;2023-06-14T11:47:18;4.00;;;3.67;;
9124;SDS011;4597;48.730;9.114;2023-06-14T11:49:44;4.45;;;4.05;;
9124;SDS011;4597;48.730;9.114;2023-06-14T11:52:09;5.07;;;3.92;;
9124;SDS011;4597;48.730;9.114;2023-06-14T11:54:36;14.85;;;4.25;;
9124;SDS011;4597;48.730;9.114;2023-06-14T11:57:02;4.63;;;4.18;;
9124;SDS011;4597;48.730;9.114;2023-06-14T11:59:28;4.70;;;4.30;;
9124;SDS011;4597;48.730;9.114;2023-06-14T12:01:53;4.68;;;4.22;;
9124;SDS011;4597;48.730;9.114;2023-06-14T12:04:28;4.35;;;3.95;;
9124;SDS011;4597;48.730;9.114;2023-06-14T12:06:54;4.43;;;4.13;;
9124;SDS011;4597;48.730;9.114;2023-06-14T12:09:22;4.97;;;3.83;;
9124;SDS011;4597;48.730;9.114;2023-06-14T12:11:50;4.32;;;3.92;;
9124;SDS011;4597;48.730;9.114;2023-06-14T12:14:28;3.92;;;3.63;;
9124;SDS011;4597;48.730;9.114;2023-06-14T12:17:03;3.97;;;3.67;;
9124;SDS011;4597;48.730;9.114;2023-06-14T12:19:32;5.05;;;4.40;;
9124;SDS011;4597;48.730;9.114;2023-06-14T12:22:00;4.13;;;3.83;;
9124;SDS011;4597;48.730;9.114;2023-06-14T12:24:30;4.07;;;3.78;;
9124;SDS011;4597;48.730;9.114;2023-06-14T12:26:57;4.88;;;4.32;;
9124;SDS011;4597;48.730;9.114;2023-06-14T12:29:24;4.25;;;3.85;;
9124;SDS011;4597;48.730;9.114;2023-06-14T12:31:50;4.00;;;3.70;;
9124;SDS011;4597;48.730;9.114;2023-06-14T12:34:15;4.13;;;3.83;;
9124;SDS011;4597;48.730;9.114;2023-06-14T12:36:41;3.95;;;3.75;;
9124;SDS011;4597;48.730;9.114;2023-06-14T12:39:09;4.22;;;3.65;;
9124;SDS011;4597;48.730;9.114;2023-06-14T12:41:35;4.85;;;4.45;;
9124;SDS011;4597;48.730;9.114;2023-06-14T12:44:01;4.18;;;3.90;;
9124;SDS011;4597;48.730;9.114;2023-06-14T12:46:30;4.00;;;3.70;;
9124;SDS011;4597;48.730;9.114;2023-06-14T12:48:56;3.95;;;3.70;;
9124;SDS011;4597;48.730;9.114;2023-06-14T12:51:22;4.30;;;4.00;;
9124;SDS011;4597;48.730;9.114;2023-06-14T12:53:48;4.25;;;3.67;;
9124;SDS011;4597;48.730;9.114;2023-06-14T12:56:14;3.75;;;3.55;;
9124;SDS011;4597;48.730;9.114;2023-06-14T12:58:40;4.18;;;3.85;;
9124;SDS011;4597;48.730;9.114;2023-06-14T13:01:07;3.90;;;3.70;;
9124;SDS011;4597;48.730;9.114;2023-06-14T13:03:32;6.28;;;3.97;;
9124;SDS011;4597;48.730;9.114;2023-06-14T13:05:59;4.30;;;3.90;;
9124;SDS011;4597;48.730;9.114;2023-06-14T13:08:25;4.65;;;4.35;;
9124;SDS011;4597;48.730;9.114;2023-06-14T13:10:51;4.20;;;3.88;;
9124;SDS011;4597;48.730;9.114;2023-06-14T13:13:16;4.22;;;3.83;;
9124;SDS011;4597;48.730;9.114;2023-06-14T13:15:42;4.75;;;4.13;;
9124;SDS011;4597;48.730;9.114;2023-06-14T13:18:08;4.22;;;3.80;;
9124;SDS011;4597;48.730;9.114;2023-06-14T13:20:34;4.30;;;3.97;;
9124;SDS011;4597;48.730;9.114;2023-06-14T13:22:59;4.25;;;3.95;;
9124;SDS011;4597;48.730;9.114;2023-06-14T13:25:27;4.13;;;3.83;;
9124;SDS011;4597;48.730;9.114;2023-06-14T13:27:52;4.47;;;4.07;;
9124;SDS011;4597;48.730;9.114;2023-06-14T13:30:18;4.35;;;4.00;;
9124;SDS011;4597;48.730;9.114;2023-06-14T13:32:43;4.63;;;4.22;;
9124;SDS011;4597;48.730;9.114;2023-06-14T13:35:09;5.22;;;3.78;;
9124;SDS011;4597;48.730;9.114;2023-06-14T13:37:34;4.28;;;4.07;;
9124;SDS011;4597;48.730;9.114;2023-06-14T13:40:00;3.90;;;3.60;;
9124;SDS011;4597;48.730;9.114;2023-06-14T13:42:25;4.57;;;4.18;;
9124;SDS011;4597;48.730;9.114;2023-06-14T13:44:51;3.92;;;3.63;;
9124;SDS011;4597;48.730;9.114;2023-06-14T13:47:17;4.03;;;3.75;;
9124;SDS011;4597;48.730;9.114;2023-06-14T13:49:43;4.05;;;3.85;;
9124;SDS011;4597;48.730;9.114;2023-06-14T13:52:08;4.30;;;4.00;;
9124;SDS011;4597;48.730;9.114;2023-06-14T13:54:34;4.55;;;4.15;;
9124;SDS011;4597;48.730;9.114;2023-06-14T13:57:01;4.30;;;3.63;;
9124;SDS011;4597;48.730;9.114;2023-06-14T13:59:26;4.35;;;3.97;;
9124;SDS011;4597;48.730;9.114;2023-06-14T14:01:51;3.80;;;3.60;;
9124;SDS011;4597;48.730;9.114;2023-06-14T14:04:17;3.95;;;3.65;;
9124;SDS011;4597;48.730;9.114;2023-06-14T14:06:42;6.32;;;4.30;;
9124;SDS011;4597;48.730;9.114;2023-06-14T14:09:08;4.40;;;3.97;;
9124;SDS011;4597;48.730;9.114;2023-06-14T14:11:34;3.80;;;3.60;;
9124;SDS011;4597;48.730;9.114;2023-06-14T14:13:59;4.85;;;3.65;;
9124;SDS011;4597;48.730;9.114;2023-06-14T14:16:26;6.00;;;4.15;;
9124;SDS011;4597;48.730;9.114;2023-06-14T14:18:51;4.28;;;3.97;;
9124;SDS011;4597;48.730;9.114;2023-06-14T14:21:17;4.32;;;3.88;;
9124;SDS011;4597;48.730;9.114;2023-06-14T14:23:42;5.07;;;3.88;;
9124;SDS011;4597;48.730;9.114;2023-06-14T14:26:09;4.38;;;4.18;;
9124;SDS011;4597;48.730;9.114;2023-06-14T14:28:34;4.72;;;4.32;;
9124;SDS011;4597;48.730;9.114;2023-06-14T14:31:00;4.22;;;4.03;;
9124;SDS011;4597;48.730;9.114;2023-06-14T14:33:26;4.68;;;4.30;;
9124;SDS011;4597;48.730;9.114;2023-06-14T14:35:52;5.82;;;4.60;;
9124;SDS011;4597;48.730;9.114;2023-06-14T14:38:17;6.57;;;4.00;;
9124;SDS011;4597;48.730;9.114;2023-06-14T14:40:43;5.28;;;4.22;;
9124;SDS011;4597;48.730;9.114;2023-06-14T14:43:09;5.30;;;4.85;;
9124;SDS011;4597;48.730;9.114;2023-06-14T14:45:36;5.28;;;4.78;;
9124;SDS011;4597;48.730;9.114;2023-06-14T14:48:01;4.43;;;3.92;;
9124;SDS011;4597;48.730;9.114;2023-06-14T14:50:27;5.47;;;4.35;;
9124;SDS011;4597;48.730;9.114;2023-06-14T14:52:53;4.47;;;4.10;;
9124;SDS011;4597;48.730;9.114;2023-06-14T14:55:19;4.72;;;4.35;;
9124;SDS011;4597;48.730;9.114;2023-06-14T14:57:45;4.72;;;4.40;;
9124;SDS011;4597;48.730;9.114;2023-06-14T15:00:11;4.57;;;4.28;;
9124;SDS011;4597;48.730;9.114;2023-06-14T15:02:37;4.78;;;4.32;;
9124;SDS011;4597;48.730;9.114;2023-06-14T15:05:02;6.10;;;4.53;;
9124;SDS011;4597;48.730;9.114;2023-06-14T15:07:28;4.43;;;4.13;;
9124;SDS011;4597;48.730;9.114;2023-06-14T15:09:56;4.00;;;3.80;;
9124;SDS011;4597;48.730;9.114;2023-06-14T15:12:22;4.80;;;4.05;;
9124;SDS011;4597;48.730;9.114;2023-06-14T15:14:51;5.38;;;4.50;;
9124;SDS011;4597;48.730;9.114;2023-06-14T15:17:17;4.43;;;4.20;;
9124;SDS011;4597;48.730;9.114;2023-06-14T15:19:46;5.50;;;4.57;;
9124;SDS011;4597;48.730;9.114;2023-06-14T15:22:12;4.78;;;4.32;;
9124;SDS011;4597;48.730;9.114;2023-06-14T15:24:39;4.65;;;4.20;;